sensor_id;sensor_type;location;lat;lon;timestamp;P1;durP1;ratioP1;P2;durP2;ratioP2
56005;SDS011;41888;44.696;10.522;2022-07-11T00:02:14;4.65;;;2.10;;
56005;SDS011;41888;44.696;10.522;2022-07-11T00:04:41;2.88;;;1.98;;
56005;SDS011;41888;44.696;10.522;2022-07-11T00:07:08;3.30;;;1.80;;
56005;SDS011;41888;44.696;10.522;2022-07-11T00:09:34;4.28;;;1.90;;
56005;SDS011;41888;44.696;10.522;2022-07-11T00:12:00;7.47;;;1.83;;
56005;SDS011;41888;44.696;10.522;2022-07-11T00:14:27;6.88;;;2.17;;
56005;SDS011;41888;44.696;10.522;2022-07-11T00:16:53;3.80;;;1.77;;
56005;SDS011;41888;44.696;10.522;2022-07-11T00:19:20;7.28;;;2.13;;
56005;SDS011;41888;44.696;10.522;2022-07-11T00:21:48;4.13;;;1.63;;
56005;SDS011;41888;44.696;10.522;2022-07-11T00:24:14;3.08;;;1.33;;
56005;SDS011;41888;44.696;10.522;2022-07-11T00:26:43;6.15;;;1.83;;
56005;SDS011;41888;44.696;10.522;2022-07-11T00:29:09;5.55;;;1.77;;
56005;SDS011;41888;44.696;10.522;2022-07-11T00:31:35;7.10;;;1.90;;
56005;SDS011;41888;44.696;10.522;2022-07-11T00:34:01;3.38;;;2.10;;
56005;SDS011;41888;44.696;10.522;2022-07-11T00:36:28;5.80;;;1.60;;
56005;SDS011;41888;44.696;10.522;2022-07-11T00:38:54;2.47;;;1.50;;
56005;SDS011;41888;44.696;10.522;2022-07-11T00:41:20;3.95;;;1.80;;
56005;SDS011;41888;44.696;10.522;2022-07-11T00:43:54;5.13;;;1.60;;
56005;SDS011;41888;44.696;10.522;2022-07-11T00:46:21;5.20;;;2.05;;
56005;SDS011;41888;44.696;10.522;2022-07-11T00:48:48;6.15;;;2.20;;
56005;SDS011;41888;44.696;10.522;2022-07-11T00:51:15;2.38;;;1.73;;
56005;SDS011;41888;44.696;10.522;2022-07-11T00:53:46;4.80;;;2.45;;
56005;SDS011;41888;44.696;10.522;2022-07-11T00:56:17;3.92;;;1.98;;
56005;SDS011;41888;44.696;10.522;2022-07-11T00:58:46;6.45;;;2.28;;
56005;SDS011;41888;44.696;10.522;2022-07-11T01:01:13;3.00;;;2.13;;
56005;SDS011;41888;44.696;10.522;2022-07-11T01:03:41;7.53;;;2.25;;
56005;SDS011;41888;44.696;10.522;2022-07-11T01:06:07;7.63;;;2.88;;
56005;SDS011;41888;44.696;10.522;2022-07-11T01:08:34;5.10;;;1.75;;
56005;SDS011;41888;44.696;10.522;2022-07-11T01:11:02;3.63;;;2.05;;
56005;SDS011;41888;44.696;10.522;2022-07-11T01:13:29;2.88;;;1.98;;
56005;SDS011;41888;44.696;10.522;2022-07-11T01:16:08;6.47;;;2.40;;
56005;SDS011;41888;44.696;10.522;2022-07-11T01:18:40;3.30;;;2.13;;
56005;SDS011;41888;44.696;10.522;2022-07-11T01:21:32;6.85;;;3.55;;
56005;SDS011;41888;44.696;10.522;2022-07-11T01:24:01;5.10;;;2.47;;
56005;SDS011;41888;44.696;10.522;2022-07-11T01:26:28;5.55;;;2.97;;
56005;SDS011;41888;44.696;10.522;2022-07-11T01:28:54;3.95;;;2.50;;
56005;SDS011;41888;44.696;10.522;2022-07-11T01:31:29;4.05;;;2.65;;
56005;SDS011;41888;44.696;10.522;2022-07-11T01:33:55;5.68;;;2.60;;
56005;SDS011;41888;44.696;10.522;2022-07-11T01:36:22;5.03;;;2.38;;
56005;SDS011;41888;44.696;10.522;2022-07-11T01:38:48;3.67;;;2.30;;
56005;SDS011;41888;44.696;10.522;2022-07-11T01:41:14;5.68;;;3.00;;
56005;SDS011;41888;44.696;10.522;2022-07-11T01:43:40;9.98;;;2.85;;
56005;SDS011;41888;44.696;10.522;2022-07-11T01:46:07;3.88;;;2.78;;
56005;SDS011;41888;44.696;10.522;2022-07-11T01:48:33;4.43;;;2.80;;
56005;SDS011;41888;44.696;10.522;2022-07-11T01:50:59;9.13;;;2.85;;
56005;SDS011;41888;44.696;10.522;2022-07-11T01:53:25;6.90;;;2.83;;
56005;SDS011;41888;44.696;10.522;2022-07-11T01:55:51;7.80;;;2.90;;
56005;SDS011;41888;44.696;10.522;2022-07-11T01:58:17;4.45;;;3.05;;
56005;SDS011;41888;44.696;10.522;2022-07-11T02:00:44;7.03;;;3.40;;
56005;SDS011;41888;44.696;10.522;2022-07-11T02:03:10;5.10;;;3.13;;
56005;SDS011;41888;44.696;10.522;2022-07-11T02:05:36;4.80;;;2.88;;
56005;SDS011;41888;44.696;10.522;2022-07-11T02:08:06;4.82;;;3.30;;
56005;SDS011;41888;44.696;10.522;2022-07-11T02:10:43;4.45;;;3.15;;
56005;SDS011;41888;44.696;10.522;2022-07-11T02:13:12;8.20;;;3.13;;
56005;SDS011;41888;44.696;10.522;2022-07-11T02:15:40;4.72;;;3.47;;
56005;SDS011;41888;44.696;10.522;2022-07-11T02:18:07;7.20;;;3.53;;
56005;SDS011;41888;44.696;10.522;2022-07-11T02:20:35;3.33;;;2.90;;
56005;SDS011;41888;44.696;10.522;2022-07-11T02:23:03;3.92;;;3.00;;
56005;SDS011;41888;44.696;10.522;2022-07-11T02:25:29;4.65;;;3.08;;
56005;SDS011;41888;44.696;10.522;2022-07-11T02:27:57;4.18;;;3.30;;
56005;SDS011;41888;44.696;10.522;2022-07-11T02:30:24;4.43;;;2.90;;
56005;SDS011;41888;44.696;10.522;2022-07-11T02:32:50;6.65;;;2.58;;
56005;SDS011;41888;44.696;10.522;2022-07-11T02:35:17;5.78;;;3.33;;
56005;SDS011;41888;44.696;10.522;2022-07-11T02:37:43;7.10;;;3.80;;
56005;SDS011;41888;44.696;10.522;2022-07-11T02:40:10;9.20;;;3.40;;
56005;SDS011;41888;44.696;10.522;2022-07-11T02:42:36;7.22;;;3.70;;
56005;SDS011;41888;44.696;10.522;2022-07-11T02:45:03;4.45;;;3.35;;
56005;SDS011;41888;44.696;10.522;2022-07-11T02:47:32;4.32;;;2.95;;
56005;SDS011;41888;44.696;10.522;2022-07-11T02:49:58;5.05;;;3.42;;
56005;SDS011;41888;44.696;10.522;2022-07-11T02:52:24;8.18;;;3.60;;
56005;SDS011;41888;44.696;10.522;2022-07-11T02:54:50;4.53;;;3.05;;
56005;SDS011;41888;44.696;10.522;2022-07-11T02:57:16;5.55;;;3.28;;
56005;SDS011;41888;44.696;10.522;2022-07-11T02:59:42;5.20;;;3.15;;
56005;SDS011;41888;44.696;10.522;2022-07-11T03:02:09;10.32;;;3.65;;
56005;SDS011;41888;44.696;10.522;2022-07-11T03:04:35;7.25;;;3.38;;
56005;SDS011;41888;44.696;10.522;2022-07-11T03:07:01;6.03;;;3.55;;
56005;SDS011;41888;44.696;10.522;2022-07-11T03:09:27;6.20;;;3.10;;
56005;SDS011;41888;44.696;10.522;2022-07-11T03:11:53;7.93;;;3.80;;
56005;SDS011;41888;44.696;10.522;2022-07-11T03:14:19;4.95;;;3.70;;
56005;SDS011;41888;44.696;10.522;2022-07-11T03:16:46;11.07;;;3.58;;
56005;SDS011;41888;44.696;10.522;2022-07-11T03:19:12;6.95;;;3.30;;
56005;SDS011;41888;44.696;10.522;2022-07-11T03:21:38;6.57;;;3.33;;
56005;SDS011;41888;44.696;10.522;2022-07-11T03:24:04;6.60;;;3.30;;
56005;SDS011;41888;44.696;10.522;2022-07-11T03:26:30;4.47;;;3.17;;
56005;SDS011;41888;44.696;10.522;2022-07-11T03:28:57;7.10;;;3.53;;
56005;SDS011;41888;44.696;10.522;2022-07-11T03:31:23;3.90;;;3.28;;
56005;SDS011;41888;44.696;10.522;2022-07-11T03:33:49;6.13;;;3.70;;
56005;SDS011;41888;44.696;10.522;2022-07-11T03:36:15;6.47;;;3.60;;
56005;SDS011;41888;44.696;10.522;2022-07-11T03:38:41;6.10;;;3.60;;
56005;SDS011;41888;44.696;10.522;2022-07-11T03:41:07;4.95;;;3.47;;
56005;SDS011;41888;44.696;10.522;2022-07-11T03:43:34;5.60;;;3.10;;
56005;SDS011;41888;44.696;10.522;2022-07-11T03:46:00;8.00;;;4.05;;
56005;SDS011;41888;44.696;10.522;2022-07-11T03:48:26;10.50;;;4.35;;
56005;SDS011;41888;44.696;10.522;2022-07-11T03:50:52;5.78;;;3.25;;
56005;SDS011;41888;44.696;10.522;2022-07-11T03:53:18;6.95;;;3.72;;
56005;SDS011;41888;44.696;10.522;2022-07-11T03:55:46;7.30;;;3.47;;
56005;SDS011;41888;44.696;10.522;2022-07-11T03:58:12;6.68;;;3.28;;
56005;SDS011;41888;44.696;10.522;2022-07-11T04:00:38;4.88;;;2.83;;
56005;SDS011;41888;44.696;10.522;2022-07-11T04:03:04;4.80;;;3.25;;
56005;SDS011;41888;44.696;10.522;2022-07-11T04:05:31;8.43;;;3.35;;
56005;SDS011;41888;44.696;10.522;2022-07-11T04:07:58;3.85;;;3.10;;
56005;SDS011;41888;44.696;10.522;2022-07-11T04:10:24;6.32;;;3.25;;
56005;SDS011;41888;44.696;10.522;2022-07-11T04:12:50;6.45;;;3.42;;
56005;SDS011;41888;44.696;10.522;2022-07-11T04:15:16;4.57;;;3.05;;
56005;SDS011;41888;44.696;10.522;2022-07-11T04:17:43;6.05;;;3.80;;
56005;SDS011;41888;44.696;10.522;2022-07-11T04:20:09;9.18;;;3.50;;
56005;SDS011;41888;44.696;10.522;2022-07-11T04:22:35;5.72;;;3.25;;
56005;SDS011;41888;44.696;10.522;2022-07-11T04:25:01;5.03;;;3.90;;
56005;SDS011;41888;44.696;10.522;2022-07-11T04:27:28;6.47;;;3.55;;
56005;SDS011;41888;44.696;10.522;2022-07-11T04:29:54;9.82;;;3.00;;
56005;SDS011;41888;44.696;10.522;2022-07-11T04:32:20;8.48;;;3.38;;
56005;SDS011;41888;44.696;10.522;2022-07-11T04:34:47;7.35;;;3.28;;
56005;SDS011;41888;44.696;10.522;2022-07-11T04:37:13;4.07;;;3.63;;
56005;SDS011;41888;44.696;10.522;2022-07-11T04:39:39;6.07;;;3.75;;
56005;SDS011;41888;44.696;10.522;2022-07-11T04:42:05;6.38;;;2.90;;
56005;SDS011;41888;44.696;10.522;2022-07-11T04:44:32;9.98;;;3.20;;
56005;SDS011;41888;44.696;10.522;2022-07-11T04:46:58;8.63;;;3.40;;
56005;SDS011;41888;44.696;10.522;2022-07-11T04:49:24;8.15;;;3.80;;
56005;SDS011;41888;44.696;10.522;2022-07-11T04:51:50;6.43;;;3.50;;
56005;SDS011;41888;44.696;10.522;2022-07-11T04:54:16;7.13;;;2.80;;
56005;SDS011;41888;44.696;10.522;2022-07-11T04:56:43;7.97;;;3.15;;
56005;SDS011;41888;44.696;10.522;2022-07-11T04:59:09;6.72;;;2.92;;
56005;SDS011;41888;44.696;10.522;2022-07-11T05:01:35;5.55;;;3.00;;
56005;SDS011;41888;44.696;10.522;2022-07-11T05:04:01;7.32;;;2.33;;
56005;SDS011;41888;44.696;10.522;2022-07-11T05:06:28;10.98;;;3.30;;
56005;SDS011;41888;44.696;10.522;2022-07-11T05:08:54;6.63;;;3.60;;
56005;SDS011;41888;44.696;10.522;2022-07-11T05:11:20;8.50;;;3.03;;
56005;SDS011;41888;44.696;10.522;2022-07-11T05:13:48;7.53;;;2.63;;
56005;SDS011;41888;44.696;10.522;2022-07-11T05:16:14;5.05;;;2.90;;
56005;SDS011;41888;44.696;10.522;2022-07-11T05:18:40;10.40;;;2.83;;
56005;SDS011;41888;44.696;10.522;2022-07-11T05:21:06;7.32;;;2.65;;
56005;SDS011;41888;44.696;10.522;2022-07-11T05:23:32;7.93;;;2.47;;
56005;SDS011;41888;44.696;10.522;2022-07-11T05:25:59;12.02;;;2.70;;
56005;SDS011;41888;44.696;10.522;2022-07-11T05:28:25;4.10;;;3.00;;
56005;SDS011;41888;44.696;10.522;2022-07-11T05:30:51;13.07;;;3.20;;
56005;SDS011;41888;44.696;10.522;2022-07-11T05:33:17;7.70;;;3.00;;
56005;SDS011;41888;44.696;10.522;2022-07-11T05:35:43;7.30;;;2.78;;
56005;SDS011;41888;44.696;10.522;2022-07-11T05:38:09;6.88;;;2.78;;
56005;SDS011;41888;44.696;10.522;2022-07-11T05:40:35;5.88;;;2.20;;
56005;SDS011;41888;44.696;10.522;2022-07-11T05:43:02;4.68;;;2.33;;
56005;SDS011;41888;44.696;10.522;2022-07-11T05:45:28;7.60;;;3.53;;
56005;SDS011;41888;44.696;10.522;2022-07-11T05:47:54;7.45;;;3.08;;
56005;SDS011;41888;44.696;10.522;2022-07-11T05:50:20;5.85;;;2.90;;
56005;SDS011;41888;44.696;10.522;2022-07-11T05:52:46;5.97;;;3.00;;
56005;SDS011;41888;44.696;10.522;2022-07-11T05:55:12;5.55;;;2.80;;
56005;SDS011;41888;44.696;10.522;2022-07-11T05:57:39;4.53;;;3.10;;
56005;SDS011;41888;44.696;10.522;2022-07-11T06:00:05;7.07;;;3.63;;
56005;SDS011;41888;44.696;10.522;2022-07-11T06:02:31;7.45;;;3.95;;
56005;SDS011;41888;44.696;10.522;2022-07-11T06:04:58;12.20;;;4.20;;
56005;SDS011;41888;44.696;10.522;2022-07-11T06:07:24;7.03;;;3.97;;
56005;SDS011;41888;44.696;10.522;2022-07-11T06:10:08;10.75;;;4.45;;
56005;SDS011;41888;44.696;10.522;2022-07-11T06:12:35;8.77;;;4.50;;
56005;SDS011;41888;44.696;10.522;2022-07-11T06:15:01;6.75;;;4.43;;
56005;SDS011;41888;44.696;10.522;2022-07-11T06:17:27;8.93;;;4.45;;
56005;SDS011;41888;44.696;10.522;2022-07-11T06:19:54;7.10;;;4.18;;
56005;SDS011;41888;44.696;10.522;2022-07-11T06:22:20;10.73;;;5.35;;
56005;SDS011;41888;44.696;10.522;2022-07-11T06:24:46;11.25;;;4.80;;
56005;SDS011;41888;44.696;10.522;2022-07-11T06:27:12;8.45;;;5.00;;
56005;SDS011;41888;44.696;10.522;2022-07-11T06:29:39;7.95;;;5.43;;
56005;SDS011;41888;44.696;10.522;2022-07-11T06:32:06;7.40;;;4.75;;
56005;SDS011;41888;44.696;10.522;2022-07-11T06:34:32;8.68;;;5.75;;
56005;SDS011;41888;44.696;10.522;2022-07-11T06:36:59;6.78;;;5.45;;
56005;SDS011;41888;44.696;10.522;2022-07-11T06:39:27;7.65;;;4.75;;
56005;SDS011;41888;44.696;10.522;2022-07-11T06:41:53;9.25;;;5.00;;
56005;SDS011;41888;44.696;10.522;2022-07-11T06:44:19;7.93;;;5.00;;
56005;SDS011;41888;44.696;10.522;2022-07-11T06:46:45;9.82;;;5.20;;
56005;SDS011;41888;44.696;10.522;2022-07-11T06:49:11;9.38;;;4.95;;
56005;SDS011;41888;44.696;10.522;2022-07-11T06:51:38;10.32;;;4.65;;
56005;SDS011;41888;44.696;10.522;2022-07-11T06:54:04;7.55;;;4.38;;
56005;SDS011;41888;44.696;10.522;2022-07-11T06:56:31;7.00;;;4.60;;
56005;SDS011;41888;44.696;10.522;2022-07-11T06:58:57;7.15;;;4.28;;
56005;SDS011;41888;44.696;10.522;2022-07-11T07:01:24;7.88;;;3.72;;
56005;SDS011;41888;44.696;10.522;2022-07-11T07:03:50;8.27;;;4.72;;
56005;SDS011;41888;44.696;10.522;2022-07-11T07:06:16;6.38;;;3.85;;
56005;SDS011;41888;44.696;10.522;2022-07-11T07:08:42;5.13;;;3.33;;
56005;SDS011;41888;44.696;10.522;2022-07-11T07:11:09;6.53;;;3.08;;
56005;SDS011;41888;44.696;10.522;2022-07-11T07:13:35;5.03;;;3.10;;
56005;SDS011;41888;44.696;10.522;2022-07-11T07:16:01;6.65;;;3.40;;
56005;SDS011;41888;44.696;10.522;2022-07-11T07:18:27;5.00;;;3.50;;
56005;SDS011;41888;44.696;10.522;2022-07-11T07:20:54;4.82;;;3.50;;
56005;SDS011;41888;44.696;10.522;2022-07-11T07:23:20;4.93;;;3.20;;
56005;SDS011;41888;44.696;10.522;2022-07-11T07:25:46;4.85;;;3.10;;
56005;SDS011;41888;44.696;10.522;2022-07-11T07:28:13;5.85;;;2.90;;
56005;SDS011;41888;44.696;10.522;2022-07-11T07:30:39;5.68;;;3.55;;
56005;SDS011;41888;44.696;10.522;2022-07-11T07:33:05;8.63;;;3.00;;
56005;SDS011;41888;44.696;10.522;2022-07-11T07:35:31;5.13;;;3.00;;
56005;SDS011;41888;44.696;10.522;2022-07-11T07:37:58;8.15;;;3.20;;
56005;SDS011;41888;44.696;10.522;2022-07-11T07:40:25;5.43;;;2.78;;
56005;SDS011;41888;44.696;10.522;2022-07-11T07:42:52;4.15;;;2.50;;
56005;SDS011;41888;44.696;10.522;2022-07-11T07:45:18;8.15;;;3.30;;
56005;SDS011;41888;44.696;10.522;2022-07-11T07:47:44;7.32;;;2.53;;
56005;SDS011;41888;44.696;10.522;2022-07-11T07:50:10;3.70;;;2.55;;
56005;SDS011;41888;44.696;10.522;2022-07-11T07:52:36;5.38;;;2.90;;
56005;SDS011;41888;44.696;10.522;2022-07-11T07:55:03;12.40;;;3.15;;
56005;SDS011;41888;44.696;10.522;2022-07-11T07:57:30;4.43;;;2.45;;
56005;SDS011;41888;44.696;10.522;2022-07-11T07:59:56;7.00;;;2.83;;
56005;SDS011;41888;44.696;10.522;2022-07-11T08:02:41;4.45;;;2.33;;
56005;SDS011;41888;44.696;10.522;2022-07-11T08:05:07;5.20;;;2.50;;
56005;SDS011;41888;44.696;10.522;2022-07-11T08:07:34;4.25;;;2.63;;
56005;SDS011;41888;44.696;10.522;2022-07-11T08:10:02;6.95;;;2.40;;
56005;SDS011;41888;44.696;10.522;2022-07-11T08:12:30;3.17;;;2.38;;
56005;SDS011;41888;44.696;10.522;2022-07-11T08:14:56;4.93;;;2.50;;
56005;SDS011;41888;44.696;10.522;2022-07-11T08:17:22;4.82;;;2.25;;
56005;SDS011;41888;44.696;10.522;2022-07-11T08:19:48;6.43;;;2.92;;
56005;SDS011;41888;44.696;10.522;2022-07-11T08:22:15;5.10;;;2.75;;
56005;SDS011;41888;44.696;10.522;2022-07-11T08:24:41;6.03;;;2.58;;
56005;SDS011;41888;44.696;10.522;2022-07-11T08:27:07;6.95;;;2.97;;
56005;SDS011;41888;44.696;10.522;2022-07-11T08:29:33;8.07;;;2.63;;
56005;SDS011;41888;44.696;10.522;2022-07-11T08:32:00;5.43;;;2.35;;
56005;SDS011;41888;44.696;10.522;2022-07-11T08:34:26;9.32;;;2.72;;
56005;SDS011;41888;44.696;10.522;2022-07-11T08:36:52;4.15;;;2.28;;
56005;SDS011;41888;44.696;10.522;2022-07-11T08:39:18;6.25;;;2.30;;
56005;SDS011;41888;44.696;10.522;2022-07-11T08:41:44;3.97;;;2.20;;
56005;SDS011;41888;44.696;10.522;2022-07-11T08:44:11;2.72;;;1.85;;
56005;SDS011;41888;44.696;10.522;2022-07-11T08:46:39;3.42;;;2.03;;
56005;SDS011;41888;44.696;10.522;2022-07-11T08:49:07;3.85;;;1.85;;
56005;SDS011;41888;44.696;10.522;2022-07-11T08:51:36;4.28;;;2.10;;
56005;SDS011;41888;44.696;10.522;2022-07-11T08:54:02;4.00;;;1.83;;
56005;SDS011;41888;44.696;10.522;2022-07-11T08:56:29;5.13;;;1.77;;
56005;SDS011;41888;44.696;10.522;2022-07-11T08:58:58;4.32;;;1.63;;
56005;SDS011;41888;44.696;10.522;2022-07-11T09:01:31;3.28;;;1.65;;
56005;SDS011;41888;44.696;10.522;2022-07-11T09:04:00;4.90;;;2.00;;
56005;SDS011;41888;44.696;10.522;2022-07-11T09:06:27;3.13;;;1.70;;
56005;SDS011;41888;44.696;10.522;2022-07-11T09:08:59;4.90;;;1.80;;
56005;SDS011;41888;44.696;10.522;2022-07-11T09:11:26;4.20;;;1.60;;
56005;SDS011;41888;44.696;10.522;2022-07-11T09:13:53;4.25;;;1.83;;
56005;SDS011;41888;44.696;10.522;2022-07-11T09:16:19;5.80;;;2.33;;
56005;SDS011;41888;44.696;10.522;2022-07-11T09:18:45;3.00;;;1.90;;
56005;SDS011;41888;44.696;10.522;2022-07-11T09:21:14;7.70;;;2.10;;
56005;SDS011;41888;44.696;10.522;2022-07-11T09:24:00;4.38;;;1.88;;
56005;SDS011;41888;44.696;10.522;2022-07-11T09:26:47;4.53;;;2.13;;
56005;SDS011;41888;44.696;10.522;2022-07-11T09:29:21;3.20;;;2.03;;
56005;SDS011;41888;44.696;10.522;2022-07-11T09:31:52;5.75;;;1.90;;
56005;SDS011;41888;44.696;10.522;2022-07-11T09:34:22;4.53;;;1.80;;
56005;SDS011;41888;44.696;10.522;2022-07-11T09:36:52;3.22;;;1.70;;
56005;SDS011;41888;44.696;10.522;2022-07-11T09:39:38;4.43;;;1.80;;
56005;SDS011;41888;44.696;10.522;2022-07-11T09:44:30;4.45;;;1.70;;
56005;SDS011;41888;44.696;10.522;2022-07-11T09:46:58;5.78;;;1.83;;
56005;SDS011;41888;44.696;10.522;2022-07-11T09:49:29;2.83;;;1.70;;
56005;SDS011;41888;44.696;10.522;2022-07-11T09:51:56;2.95;;;1.63;;
56005;SDS011;41888;44.696;10.522;2022-07-11T09:54:59;7.13;;;2.00;;
56005;SDS011;41888;44.696;10.522;2022-07-11T09:57:33;3.17;;;2.13;;
56005;SDS011;41888;44.696;10.522;2022-07-11T10:00:01;4.32;;;1.80;;
56005;SDS011;41888;44.696;10.522;2022-07-11T10:02:30;6.60;;;2.05;;
56005;SDS011;41888;44.696;10.522;2022-07-11T10:04:58;4.65;;;1.80;;
56005;SDS011;41888;44.696;10.522;2022-07-11T10:07:25;3.28;;;1.60;;
56005;SDS011;41888;44.696;10.522;2022-07-11T10:09:52;6.55;;;1.58;;
56005;SDS011;41888;44.696;10.522;2022-07-11T10:12:19;5.40;;;1.67;;
56005;SDS011;41888;44.696;10.522;2022-07-11T10:14:46;5.95;;;1.85;;
56005;SDS011;41888;44.696;10.522;2022-07-11T10:18:03;3.30;;;1.48;;
56005;SDS011;41888;44.696;10.522;2022-07-11T10:26:08;4.82;;;1.35;;
56005;SDS011;41888;44.696;10.522;2022-07-11T10:28:48;2.72;;;1.52;;
56005;SDS011;41888;44.696;10.522;2022-07-11T10:31:23;4.35;;;1.80;;
56005;SDS011;41888;44.696;10.522;2022-07-11T10:34:10;2.92;;;1.52;;
56005;SDS011;41888;44.696;10.522;2022-07-11T10:36:43;3.00;;;1.67;;
56005;SDS011;41888;44.696;10.522;2022-07-11T10:39:22;4.63;;;1.58;;
56005;SDS011;41888;44.696;10.522;2022-07-11T10:41:56;4.22;;;1.70;;
56005;SDS011;41888;44.696;10.522;2022-07-11T10:44:24;4.28;;;1.50;;
56005;SDS011;41888;44.696;10.522;2022-07-11T10:46:52;5.93;;;1.60;;
56005;SDS011;41888;44.696;10.522;2022-07-11T10:49:30;7.07;;;1.63;;
56005;SDS011;41888;44.696;10.522;2022-07-11T10:52:06;1.67;;;1.38;;
56005;SDS011;41888;44.696;10.522;2022-07-11T11:02:31;4.20;;;1.65;;
56005;SDS011;41888;44.696;10.522;2022-07-11T11:05:39;2.58;;;1.50;;
56005;SDS011;41888;44.696;10.522;2022-07-11T11:13:32;4.80;;;2.00;;
56005;SDS011;41888;44.696;10.522;2022-07-11T11:16:17;4.40;;;1.55;;
56005;SDS011;41888;44.696;10.522;2022-07-11T11:18:45;5.85;;;1.85;;
56005;SDS011;41888;44.696;10.522;2022-07-11T11:26:25;1.98;;;1.38;;
56005;SDS011;41888;44.696;10.522;2022-07-11T11:29:07;5.68;;;1.60;;
56005;SDS011;41888;44.696;10.522;2022-07-11T11:31:33;3.65;;;1.70;;
56005;SDS011;41888;44.696;10.522;2022-07-11T11:34:03;2.30;;;1.30;;
56005;SDS011;41888;44.696;10.522;2022-07-11T11:36:30;5.47;;;1.50;;
56005;SDS011;41888;44.696;10.522;2022-07-11T11:38:56;3.92;;;1.63;;
56005;SDS011;41888;44.696;10.522;2022-07-11T11:41:26;3.95;;;1.70;;
56005;SDS011;41888;44.696;10.522;2022-07-11T11:43:58;2.92;;;1.55;;
56005;SDS011;41888;44.696;10.522;2022-07-11T11:46:25;6.60;;;1.58;;
56005;SDS011;41888;44.696;10.522;2022-07-11T11:48:56;4.28;;;1.52;;
56005;SDS011;41888;44.696;10.522;2022-07-11T11:51:24;3.33;;;1.58;;
56005;SDS011;41888;44.696;10.522;2022-07-11T11:53:54;3.00;;;1.30;;
56005;SDS011;41888;44.696;10.522;2022-07-11T11:56:31;3.53;;;1.45;;
56005;SDS011;41888;44.696;10.522;2022-07-11T11:59:03;4.93;;;1.60;;
56005;SDS011;41888;44.696;10.522;2022-07-11T12:01:42;3.97;;;1.48;;
56005;SDS011;41888;44.696;10.522;2022-07-11T12:04:13;5.53;;;1.95;;
56005;SDS011;41888;44.696;10.522;2022-07-11T12:06:50;4.28;;;1.70;;
56005;SDS011;41888;44.696;10.522;2022-07-11T12:11:44;2.60;;;1.58;;
56005;SDS011;41888;44.696;10.522;2022-07-11T12:14:12;3.38;;;1.60;;
56005;SDS011;41888;44.696;10.522;2022-07-11T12:16:46;3.28;;;2.00;;
56005;SDS011;41888;44.696;10.522;2022-07-11T12:19:14;3.35;;;1.35;;
56005;SDS011;41888;44.696;10.522;2022-07-11T12:21:45;4.22;;;1.60;;
56005;SDS011;41888;44.696;10.522;2022-07-11T12:24:20;3.60;;;1.65;;
56005;SDS011;41888;44.696;10.522;2022-07-11T12:26:48;3.20;;;1.65;;
56005;SDS011;41888;44.696;10.522;2022-07-11T12:29:18;6.03;;;1.67;;
56005;SDS011;41888;44.696;10.522;2022-07-11T12:37:07;4.82;;;1.55;;
56005;SDS011;41888;44.696;10.522;2022-07-11T12:39:36;6.18;;;1.83;;
56005;SDS011;41888;44.696;10.522;2022-07-11T12:44:57;3.08;;;1.40;;
56005;SDS011;41888;44.696;10.522;2022-07-11T12:47:34;5.15;;;1.52;;
56005;SDS011;41888;44.696;10.522;2022-07-11T12:50:18;2.20;;;1.42;;
56005;SDS011;41888;44.696;10.522;2022-07-11T12:52:53;4.45;;;1.80;;
56005;SDS011;41888;44.696;10.522;2022-07-11T12:55:23;2.25;;;1.20;;
56005;SDS011;41888;44.696;10.522;2022-07-11T12:58:11;3.90;;;1.50;;
56005;SDS011;41888;44.696;10.522;2022-07-11T13:00:41;5.82;;;1.50;;
56005;SDS011;41888;44.696;10.522;2022-07-11T13:05:55;5.07;;;1.70;;
56005;SDS011;41888;44.696;10.522;2022-07-11T13:08:26;4.57;;;1.40;;
56005;SDS011;41888;44.696;10.522;2022-07-11T13:11:18;3.92;;;1.58;;
56005;SDS011;41888;44.696;10.522;2022-07-11T13:13:48;4.10;;;1.50;;
56005;SDS011;41888;44.696;10.522;2022-07-11T13:16:16;3.65;;;1.42;;
56005;SDS011;41888;44.696;10.522;2022-07-11T13:18:43;3.05;;;1.45;;
56005;SDS011;41888;44.696;10.522;2022-07-11T13:21:10;4.43;;;1.73;;
56005;SDS011;41888;44.696;10.522;2022-07-11T13:23:37;2.08;;;1.48;;
56005;SDS011;41888;44.696;10.522;2022-07-11T13:26:05;3.70;;;1.30;;
56005;SDS011;41888;44.696;10.522;2022-07-11T13:28:32;1.83;;;1.30;;
56005;SDS011;41888;44.696;10.522;2022-07-11T13:30:58;3.00;;;1.42;;
56005;SDS011;41888;44.696;10.522;2022-07-11T13:33:25;3.78;;;1.55;;
56005;SDS011;41888;44.696;10.522;2022-07-11T13:35:51;5.22;;;1.30;;
56005;SDS011;41888;44.696;10.522;2022-07-11T13:38:18;2.97;;;1.25;;
56005;SDS011;41888;44.696;10.522;2022-07-11T13:40:45;7.60;;;2.45;;
56005;SDS011;41888;44.696;10.522;2022-07-11T13:43:11;2.72;;;1.27;;
56005;SDS011;41888;44.696;10.522;2022-07-11T13:45:38;2.17;;;1.30;;
56005;SDS011;41888;44.696;10.522;2022-07-11T13:48:05;4.95;;;1.52;;
56005;SDS011;41888;44.696;10.522;2022-07-11T13:50:32;4.90;;;1.42;;
56005;SDS011;41888;44.696;10.522;2022-07-11T13:52:59;3.50;;;1.73;;
56005;SDS011;41888;44.696;10.522;2022-07-11T13:55:25;3.45;;;1.40;;
56005;SDS011;41888;44.696;10.522;2022-07-11T13:57:57;5.22;;;1.40;;
56005;SDS011;41888;44.696;10.522;2022-07-11T14:00:25;2.75;;;1.55;;
56005;SDS011;41888;44.696;10.522;2022-07-11T14:02:57;3.72;;;1.40;;
56005;SDS011;41888;44.696;10.522;2022-07-11T14:05:23;3.28;;;1.77;;
56005;SDS011;41888;44.696;10.522;2022-07-11T14:07:49;3.30;;;1.40;;
56005;SDS011;41888;44.696;10.522;2022-07-11T14:10:17;1.95;;;1.30;;
56005;SDS011;41888;44.696;10.522;2022-07-11T14:12:43;2.55;;;1.38;;
56005;SDS011;41888;44.696;10.522;2022-07-11T14:15:09;2.75;;;1.45;;
56005;SDS011;41888;44.696;10.522;2022-07-11T14:17:36;5.75;;;1.67;;
56005;SDS011;41888;44.696;10.522;2022-07-11T14:20:02;3.13;;;1.20;;
56005;SDS011;41888;44.696;10.522;2022-07-11T14:22:29;4.80;;;1.50;;
56005;SDS011;41888;44.696;10.522;2022-07-11T14:24:55;6.78;;;1.33;;
56005;SDS011;41888;44.696;10.522;2022-07-11T14:27:21;4.05;;;1.40;;
56005;SDS011;41888;44.696;10.522;2022-07-11T14:29:48;2.88;;;1.30;;
56005;SDS011;41888;44.696;10.522;2022-07-11T14:32:15;3.05;;;1.20;;
56005;SDS011;41888;44.696;10.522;2022-07-11T14:34:45;4.28;;;1.40;;
56005;SDS011;41888;44.696;10.522;2022-07-11T14:37:11;2.70;;;1.40;;
56005;SDS011;41888;44.696;10.522;2022-07-11T14:39:37;3.92;;;1.30;;
56005;SDS011;41888;44.696;10.522;2022-07-11T14:42:04;3.03;;;1.15;;
56005;SDS011;41888;44.696;10.522;2022-07-11T14:44:30;3.85;;;1.38;;
56005;SDS011;41888;44.696;10.522;2022-07-11T14:46:56;3.47;;;1.73;;
56005;SDS011;41888;44.696;10.522;2022-07-11T14:49:22;5.25;;;1.63;;
56005;SDS011;41888;44.696;10.522;2022-07-11T14:51:48;4.88;;;1.27;;
56005;SDS011;41888;44.696;10.522;2022-07-11T14:54:15;6.20;;;1.50;;
56005;SDS011;41888;44.696;10.522;2022-07-11T14:56:41;4.88;;;1.48;;
56005;SDS011;41888;44.696;10.522;2022-07-11T14:59:08;2.42;;;1.30;;
56005;SDS011;41888;44.696;10.522;2022-07-11T15:01:34;2.30;;;1.27;;
56005;SDS011;41888;44.696;10.522;2022-07-11T15:04:00;3.08;;;1.23;;
56005;SDS011;41888;44.696;10.522;2022-07-11T15:06:29;2.80;;;1.33;;
56005;SDS011;41888;44.696;10.522;2022-07-11T15:09:14;3.05;;;1.52;;
56005;SDS011;41888;44.696;10.522;2022-07-11T15:11:58;4.45;;;1.55;;
56005;SDS011;41888;44.696;10.522;2022-07-11T15:14:43;2.33;;;1.42;;
56005;SDS011;41888;44.696;10.522;2022-07-11T15:17:09;3.40;;;1.55;;
56005;SDS011;41888;44.696;10.522;2022-07-11T15:19:35;3.88;;;1.73;;
56005;SDS011;41888;44.696;10.522;2022-07-11T15:22:01;5.85;;;1.92;;